sensor_id;sensor_type;location;lat;lon;timestamp;temperature;humidity
25170;DHT22;13129;48.012;10.352;2023-05-14T03:31:30;9.80;99.90
25170;DHT22;13129;48.012;10.352;2023-05-14T03:33:56;9.80;99.90
25170;DHT22;13129;48.012;10.352;2023-05-14T03:36:21;9.80;99.90
25170;DHT22;13129;48.012;10.352;2023-05-14T03:38:47;9.80;99.90
25170;DHT22;13129;48.012;10.352;2023-05-14T03:41:13;9.80;99.90
25170;DHT22;13129;48.012;10.352;2023-05-14T03:43:38;9.80;99.90
25170;DHT22;13129;48.012;10.352;2023-05-14T03:46:04;9.80;99.90
25170;DHT22;13129;48.012;10.352;2023-05-14T03:48:30;9.80;99.90
25170;DHT22;13129;48.012;10.352;2023-05-14T03:50:55;9.80;99.90
25170;DHT22;13129;48.012;10.352;2023-05-14T03:53:21;9.80;99.90
25170;DHT22;13129;48.012;10.352;2023-05-14T03:55:47;9.80;99.90
25170;DHT22;13129;48.012;10.352;2023-05-14T03:58:12;9.90;99.90
25170;DHT22;13129;48.012;10.352;2023-05-14T04:00:42;9.90;99.90
25170;DHT22;13129;48.012;10.352;2023-05-14T04:03:07;9.80;99.90
25170;DHT22;13129;48.012;10.352;2023-05-14T04:05:34;9.90;99.90
25170;DHT22;13129;48.012;10.352;2023-05-14T04:08:00;9.90;99.90
25170;DHT22;13129;48.012;10.352;2023-05-14T04:10:26;9.90;99.90
25170;DHT22;13129;48.012;10.352;2023-05-14T04:12:52;9.90;99.90
25170;DHT22;13129;48.012;10.352;2023-05-14T04:15:17;9.90;99.90
25170;DHT22;13129;48.012;10.352;2023-05-14T04:17:43;9.90;99.90
25170;DHT22;13129;48.012;10.352;2023-05-14T04:20:09;9.90;99.90
25170;DHT22;13129;48.012;10.352;2023-05-14T04:22:35;9.90;99.90
25170;DHT22;13129;48.012;10.352;2023-05-14T04:25:00;9.90;99.90
25170;DHT22;13129;48.012;10.352;2023-05-14T04:27:27;10.00;99.90
25170;DHT22;13129;48.012;10.352;2023-05-14T04:29:53;9.90;99.90
25170;DHT22;13129;48.012;10.352;2023-05-14T04:32:19;10.00;99.90
25170;DHT22;13129;48.012;10.352;2023-05-14T04:34:45;9.90;99.90
25170;DHT22;13129;48.012;10.352;2023-05-14T04:37:20;9.90;99.90
25170;DHT22;13129;48.012;10.352;2023-05-14T04:39:50;9.90;99.90
25170;DHT22;13129;48.012;10.352;2023-05-14T04:42:16;10.00;99.90
25170;DHT22;13129;48.012;10.352;2023-05-14T04:44:42;10.00;99.90
25170;DHT22;13129;48.012;10.352;2023-05-14T04:47:07;10.00;99.90
25170;DHT22;13129;48.012;10.352;2023-05-14T04:49:33;10.00;99.90
25170;DHT22;13129;48.012;10.352;2023-05-14T04:52:00;10.00;99.90
25170;DHT22;13129;48.012;10.352;2023-05-14T04:54:26;10.00;99.90
25170;DHT22;13129;48.012;10.352;2023-05-14T04:56:51;10.00;99.90
25170;DHT22;13129;48.012;10.352;2023-05-14T04:59:19;10.00;99.90
25170;DHT22;13129;48.012;10.352;2023-05-14T05:01:45;10.10;99.90
25170;DHT22;13129;48.012;10.352;2023-05-14T05:04:20;10.10;99.90
25170;DHT22;13129;48.012;10.352;2023-05-14T05:07:04;10.20;99.90
25170;DHT22;13129;48.012;10.352;2023-05-14T05:10:11;10.20;99.90
25170;DHT22;13129;48.012;10.352;2023-05-14T05:12:59;10.20;99.90
25170;DHT22;13129;48.012;10.352;2023-05-14T05:16:20;10.20;99.90
25170;DHT22;13129;48.012;10.352;2023-05-14T05:28:15;10.30;99.90
25170;DHT22;13129;48.012;10.352;2023-05-14T05:31:02;10.30;99.90
25170;DHT22;13129;48.012;10.352;2023-05-14T05:33:58;10.30;99.90
25170;DHT22;13129;48.012;10.352;2023-05-14T05:43:39;10.40;99.90
25170;DHT22;13129;48.012;10.352;2023-05-14T05:46:31;10.50;99.90
25170;DHT22;13129;48.012;10.352;2023-05-14T05:53:24;10.40;99.90
25170;DHT22;13129;48.012;10.352;2023-05-14T05:57:13;10.40;99.90
25170;DHT22;13129;48.012;10.352;2023-05-14T06:03:07;10.50;99.90
25170;DHT22;13129;48.012;10.352;2023-05-14T06:06:11;10.70;99.90
25170;DHT22;13129;48.012;10.352;2023-05-14T06:09:03;10.80;99.90
25170;DHT22;13129;48.012;10.352;2023-05-14T06:11:31;10.80;99.90
25170;DHT22;13129;48.012;10.352;2023-05-14T06:13:57;10.90;99.90
25170;DHT22;13129;48.012;10.352;2023-05-14T06:16:23;10.90;99.90
25170;DHT22;13129;48.012;10.352;2023-05-14T06:18:49;10.90;99.90
25170;DHT22;13129;48.012;10.352;2023-05-14T06:21:16;10.80;99.90
25170;DHT22;13129;48.012;10.352;2023-05-14T06:23:42;10.80;99.90
25170;DHT22;13129;48.012;10.352;2023-05-14T06:26:11;10.80;99.90
25170;DHT22;13129;48.012;10.352;2023-05-14T06:28:37;10.80;99.90
25170;DHT22;13129;48.012;10.352;2023-05-14T06:34:49;10.60;99.90
25170;DHT22;13129;48.012;10.352;2023-05-14T06:47:11;10.40;99.90
25170;DHT22;13129;48.012;10.352;2023-05-14T06:50:04;10.30;99.90
25170;DHT22;13129;48.012;10.352;2023-05-14T06:52:42;10.10;99.90
25170;DHT22;13129;48.012;10.352;2023-05-14T06:55:25;10.10;99.90
25170;DHT22;13129;48.012;10.352;2023-05-14T06:58:13;10.10;99.90
25170;DHT22;13129;48.012;10.352;2023-05-14T07:00:48;10.10;99.90
25170;DHT22;13129;48.012;10.352;2023-05-14T07:03:39;10.10;99.90
25170;DHT22;13129;48.012;10.352;2023-05-14T07:06:19;10.20;99.90
25170;DHT22;13129;48.012;10.352;2023-05-14T07:11:57;10.40;99.90
25170;DHT22;13129;48.012;10.352;2023-05-14T07:14:23;10.60;99.90
25170;DHT22;13129;48.012;10.352;2023-05-14T07:16:49;10.70;99.90
25170;DHT22;13129;48.012;10.352;2023-05-14T07:19:15;10.90;99.90
25170;DHT22;13129;48.012;10.352;2023-05-14T07:21:40;11.00;99.90
25170;DHT22;13129;48.012;10.352;2023-05-14T07:24:09;11.10;99.90
25170;DHT22;13129;48.012;10.352;2023-05-14T07:26:35;11.10;99.90
25170;DHT22;13129;48.012;10.352;2023-05-14T07:29:01;11.30;99.90
25170;DHT22;13129;48.012;10.352;2023-05-14T07:31:26;11.30;99.90
25170;DHT22;13129;48.012;10.352;2023-05-14T07:33:52;11.30;99.90
25170;DHT22;13129;48.012;10.352;2023-05-14T07:36:18;11.40;99.90
25170;DHT22;13129;48.012;10.352;2023-05-14T07:38:43;11.40;99.90
25170;DHT22;13129;48.012;10.352;2023-05-14T07:41:12;11.50;99.90
25170;DHT22;13129;48.012;10.352;2023-05-14T07:43:38;11.60;99.90
25170;DHT22;13129;48.012;10.352;2023-05-14T07:46:04;11.60;99.90
25170;DHT22;13129;48.012;10.352;2023-05-14T07:48:30;11.70;99.90
25170;DHT22;13129;48.012;10.352;2023-05-14T07:50:59;11.70;99.90
25170;DHT22;13129;48.012;10.352;2023-05-14T07:53:28;11.60;99.90
25170;DHT22;13129;48.012;10.352;2023-05-14T07:55:54;11.40;99.90
25170;DHT22;13129;48.012;10.352;2023-05-14T07:58:19;11.40;99.90
25170;DHT22;13129;48.012;10.352;2023-05-14T08:00:48;11.30;99.90
25170;DHT22;13129;48.012;10.352;2023-05-14T08:03:14;11.40;99.90
25170;DHT22;13129;48.012;10.352;2023-05-14T08:05:40;11.50;99.90
25170;DHT22;13129;48.012;10.352;2023-05-14T08:08:05;11.60;99.90
25170;DHT22;13129;48.012;10.352;2023-05-14T08:57:08;12.80;99.90
25170;DHT22;13129;48.012;10.352;2023-05-14T09:00:07;12.60;99.90
25170;DHT22;13129;48.012;10.352;2023-05-14T09:06:54;12.40;99.90
25170;DHT22;13129;48.012;10.352;2023-05-14T09:22:39;13.00;99.90
25170;DHT22;13129;48.012;10.352;2023-05-14T09:31:58;13.50;99.90
25170;DHT22;13129;48.012;10.352;2023-05-14T09:37:40;13.90;99.90
25170;DHT22;13129;48.012;10.352;2023-05-14T09:40:07;14.40;99.90
25170;DHT22;13129;48.012;10.352;2023-05-14T09:43:03;14.70;99.90
25170;DHT22;13129;48.012;10.352;2023-05-14T09:45:58;15.00;99.90
25170;DHT22;13129;48.012;10.352;2023-05-14T09:59:02;15.20;99.90
25170;DHT22;13129;48.012;10.352;2023-05-14T10:05:16;14.60;99.90
25170;DHT22;13129;48.012;10.352;2023-05-14T10:07:51;14.30;99.90
25170;DHT22;13129;48.012;10.352;2023-05-14T10:13:21;14.10;99.90
25170;DHT22;13129;48.012;10.352;2023-05-14T10:18:44;14.20;99.90
25170;DHT22;13129;48.012;10.352;2023-05-14T10:21:37;14.30;99.90
25170;DHT22;13129;48.012;10.352;2023-05-14T10:24:38;14.50;99.90
25170;DHT22;13129;48.012;10.352;2023-05-14T10:27:20;14.30;99.90
25170;DHT22;13129;48.012;10.352;2023-05-14T10:29:52;14.20;99.90
25170;DHT22;13129;48.012;10.352;2023-05-14T10:32:30;13.90;99.90
25170;DHT22;13129;48.012;10.352;2023-05-14T10:34:57;13.60;99.90
25170;DHT22;13129;48.012;10.352;2023-05-14T10:37:26;13.40;99.90
25170;DHT22;13129;48.012;10.352;2023-05-14T10:39:53;13.20;99.90
25170;DHT22;13129;48.012;10.352;2023-05-14T10:42:41;13.00;99.90
25170;DHT22;13129;48.012;10.352;2023-05-14T10:52:28;12.60;99.90
25170;DHT22;13129;48.012;10.352;2023-05-14T11:10:16;12.30;99.90
25170;DHT22;13129;48.012;10.352;2023-05-14T11:22:59;13.60;99.90
25170;DHT22;13129;48.012;10.352;2023-05-14T11:25:55;13.70;99.90
25170;DHT22;13129;48.012;10.352;2023-05-14T11:28:35;13.80;99.90
25170;DHT22;13129;48.012;10.352;2023-05-14T11:45:22;13.60;99.90
25170;DHT22;13129;48.012;10.352;2023-05-14T11:48:11;13.70;99.90
25170;DHT22;13129;48.012;10.352;2023-05-14T11:50:56;14.10;99.90
25170;DHT22;13129;48.012;10.352;2023-05-14T11:53:28;14.20;99.90
25170;DHT22;13129;48.012;10.352;2023-05-14T11:55:55;14.20;99.90
25170;DHT22;13129;48.012;10.352;2023-05-14T11:58:24;14.20;99.90
25170;DHT22;13129;48.012;10.352;2023-05-14T12:01:01;14.30;99.90
25170;DHT22;13129;48.012;10.352;2023-05-14T12:03:41;14.70;99.90
25170;DHT22;13129;48.012;10.352;2023-05-14T12:06:31;15.10;99.90
25170;DHT22;13129;48.012;10.352;2023-05-14T12:09:05;15.50;99.90
25170;DHT22;13129;48.012;10.352;2023-05-14T12:11:32;16.00;99.90
25170;DHT22;13129;48.012;10.352;2023-05-14T12:14:00;16.50;99.90
25170;DHT22;13129;48.012;10.352;2023-05-14T12:16:32;16.80;99.90
25170;DHT22;13129;48.012;10.352;2023-05-14T12:19:01;17.00;99.90
25170;DHT22;13129;48.012;10.352;2023-05-14T12:21:28;17.10;99.90
25170;DHT22;13129;48.012;10.352;2023-05-14T12:24:00;17.40;99.90
25170;DHT22;13129;48.012;10.352;2023-05-14T12:26:26;17.70;99.90
25170;DHT22;13129;48.012;10.352;2023-05-14T12:29:04;17.50;99.90
25170;DHT22;13129;48.012;10.352;2023-05-14T12:31:35;17.00;99.90
25170;DHT22;13129;48.012;10.352;2023-05-14T12:34:02;16.40;99.90
25170;DHT22;13129;48.012;10.352;2023-05-14T12:36:28;15.80;99.90
25170;DHT22;13129;48.012;10.352;2023-05-14T12:39:00;15.60;99.90
25170;DHT22;13129;48.012;10.352;2023-05-14T12:41:26;15.40;99.90
25170;DHT22;13129;48.012;10.352;2023-05-14T12:43:52;15.30;99.90
25170;DHT22;13129;48.012;10.352;2023-05-14T12:46:18;15.10;99.90
25170;DHT22;13129;48.012;10.352;2023-05-14T12:48:47;15.10;99.90
25170;DHT22;13129;48.012;10.352;2023-05-14T12:55:18;14.70;99.90
25170;DHT22;13129;48.012;10.352;2023-05-14T12:58:12;14.50;99.90
25170;DHT22;13129;48.012;10.352;2023-05-14T13:00:51;14.10;99.90
25170;DHT22;13129;48.012;10.352;2023-05-14T13:03:17;14.00;99.90
25170;DHT22;13129;48.012;10.352;2023-05-14T13:05:43;13.90;99.90
25170;DHT22;13129;48.012;10.352;2023-05-14T13:08:09;13.70;99.90
25170;DHT22;13129;48.012;10.352;2023-05-14T13:10:35;13.60;99.90
25170;DHT22;13129;48.012;10.352;2023-05-14T13:13:06;13.60;99.90
25170;DHT22;13129;48.012;10.352;2023-05-14T13:15:32;13.70;99.90
25170;DHT22;13129;48.012;10.352;2023-05-14T13:18:01;14.00;99.90
25170;DHT22;13129;48.012;10.352;2023-05-14T13:20:27;14.20;99.90
25170;DHT22;13129;48.012;10.352;2023-05-14T13:23:06;14.20;99.90
25170;DHT22;13129;48.012;10.352;2023-05-14T13:25:32;14.50;99.90
25170;DHT22;13129;48.012;10.352;2023-05-14T13:27:57;14.70;99.90
25170;DHT22;13129;48.012;10.352;2023-05-14T13:30:23;14.90;99.90
25170;DHT22;13129;48.012;10.352;2023-05-14T13:32:49;14.80;99.90
25170;DHT22;13129;48.012;10.352;2023-05-14T13:35:18;14.70;99.90
25170;DHT22;13129;48.012;10.352;2023-05-14T13:37:50;14.70;99.90
25170;DHT22;13129;48.012;10.352;2023-05-14T13:50:08;16.40;99.90
25170;DHT22;13129;48.012;10.352;2023-05-14T13:52:34;16.60;99.90
25170;DHT22;13129;48.012;10.352;2023-05-14T13:55:00;16.60;99.90
25170;DHT22;13129;48.012;10.352;2023-05-14T13:58:00;16.30;99.90
25170;DHT22;13129;48.012;10.352;2023-05-14T14:01:02;16.10;99.90
25170;DHT22;13129;48.012;10.352;2023-05-14T14:07:25;16.20;99.90
25170;DHT22;13129;48.012;10.352;2023-05-14T14:16:23;15.00;99.90
25170;DHT22;13129;48.012;10.352;2023-05-14T14:18:49;14.90;99.90
25170;DHT22;13129;48.012;10.352;2023-05-14T14:21:16;14.90;99.90
25170;DHT22;13129;48.012;10.352;2023-05-14T14:23:45;15.10;99.90
25170;DHT22;13129;48.012;10.352;2023-05-14T14:26:12;15.10;99.90
25170;DHT22;13129;48.012;10.352;2023-05-14T14:28:37;15.30;99.90
25170;DHT22;13129;48.012;10.352;2023-05-14T14:31:05;15.30;99.90
25170;DHT22;13129;48.012;10.352;2023-05-14T14:33:30;15.40;99.90
25170;DHT22;13129;48.012;10.352;2023-05-14T14:35:56;15.30;99.90
25170;DHT22;13129;48.012;10.352;2023-05-14T14:38:23;15.20;99.90
25170;DHT22;13129;48.012;10.352;2023-05-14T14:40:48;15.10;99.90
25170;DHT22;13129;48.012;10.352;2023-05-14T14:43:14;15.10;99.90
25170;DHT22;13129;48.012;10.352;2023-05-14T14:45:40;15.10;99.90
25170;DHT22;13129;48.012;10.352;2023-05-14T14:48:27;15.10;99.90
25170;DHT22;13129;48.012;10.352;2023-05-14T14:50:55;15.20;99.90
25170;DHT22;13129;48.012;10.352;2023-05-14T14:53:21;15.20;99.90
25170;DHT22;13129;48.012;10.352;2023-05-14T14:55:48;15.20;99.90
25170;DHT22;13129;48.012;10.352;2023-05-14T14:58:14;15.20;99.90
25170;DHT22;13129;48.012;10.352;2023-05-14T15:00:43;15.30;99.90
25170;DHT22;13129;48.012;10.352;2023-05-14T15:03:18;15.50;99.90
25170;DHT22;13129;48.012;10.352;2023-05-14T15:05:56;15.70;99.90
25170;DHT22;13129;48.012;10.352;2023-05-14T15:08:25;15.80;99.90
25170;DHT22;13129;48.012;10.352;2023-05-14T15:10:52;15.80;99.90
25170;DHT22;13129;48.012;10.352;2023-05-14T15:13:18;15.80;99.90
25170;DHT22;13129;48.012;10.352;2023-05-14T15:15:48;16.00;99.90
25170;DHT22;13129;48.012;10.352;2023-05-14T15:18:23;16.20;99.90
25170;DHT22;13129;48.012;10.352;2023-05-14T15:20:49;16.30;99.90
25170;DHT22;13129;48.012;10.352;2023-05-14T15:23:15;16.40;99.90
25170;DHT22;13129;48.012;10.352;2023-05-14T15:25:41;16.40;99.90
25170;DHT22;13129;48.012;10.352;2023-05-14T15:28:06;16.40;99.90
25170;DHT22;13129;48.012;10.352;2023-05-14T15:30:32;16.40;99.90
25170;DHT22;13129;48.012;10.352;2023-05-14T15:32:58;16.40;99.90
25170;DHT22;13129;48.012;10.352;2023-05-14T15:35:24;16.30;99.90
25170;DHT22;13129;48.012;10.352;2023-05-14T15:37:54;16.20;99.90
25170;DHT22;13129;48.012;10.352;2023-05-14T15:40:41;16.10;99.90
25170;DHT22;13129;48.012;10.352;2023-05-14T15:43:27;15.90;99.90
25170;DHT22;13129;48.012;10.352;2023-05-14T15:45:53;15.80;99.90
25170;DHT22;13129;48.012;10.352;2023-05-14T15:48:19;15.70;99.90
25170;DHT22;13129;48.012;10.352;2023-05-14T15:50:47;15.60;99.90
25170;DHT22;13129;48.012;10.352;2023-05-14T15:53:12;15.50;99.90
25170;DHT22;13129;48.012;10.352;2023-05-14T15:55:38;15.40;99.90
25170;DHT22;13129;48.012;10.352;2023-05-14T15:58:04;15.40;99.90
25170;DHT22;13129;48.012;10.352;2023-05-14T16:00:30;15.40;99.90
25170;DHT22;13129;48.012;10.352;2023-05-14T16:02:56;15.30;99.90
25170;DHT22;13129;48.012;10.352;2023-05-14T16:05:21;15.30;99.90
25170;DHT22;13129;48.012;10.352;2023-05-14T16:07:48;15.40;99.90
25170;DHT22;13129;48.012;10.352;2023-05-14T16:10:14;15.40;99.90
25170;DHT22;13129;48.012;10.352;2023-05-14T16:12:40;15.50;99.90
25170;DHT22;13129;48.012;10.352;2023-05-14T16:15:06;15.60;99.90
25170;DHT22;13129;48.012;10.352;2023-05-14T16:17:32;15.60;99.90
25170;DHT22;13129;48.012;10.352;2023-05-14T16:20:02;15.80;99.90
25170;DHT22;13129;48.012;10.352;2023-05-14T16:22:29;15.90;99.90
25170;DHT22;13129;48.012;10.352;2023-05-14T16:24:57;15.90;99.90
25170;DHT22;13129;48.012;10.352;2023-05-14T16:27:23;15.80;99.90
25170;DHT22;13129;48.012;10.352;2023-05-14T16:29:49;15.50;99.90
25170;DHT22;13129;48.012;10.352;2023-05-14T16:32:14;15.20;99.90
25170;DHT22;13129;48.012;10.352;2023-05-14T16:34:40;14.90;99.90
25170;DHT22;13129;48.012;10.352;2023-05-14T16:37:06;14.60;99.90
25170;DHT22;13129;48.012;10.352;2023-05-14T16:39:32;14.30;99.90
25170;DHT22;13129;48.012;10.352;2023-05-14T16:41:58;13.60;99.90
25170;DHT22;13129;48.012;10.352;2023-05-14T16:44:23;12.90;99.90
25170;DHT22;13129;48.012;10.352;2023-05-14T16:46:49;12.20;99.90
25170;DHT22;13129;48.012;10.352;2023-05-14T16:49:15;11.70;99.90
25170;DHT22;13129;48.012;10.352;2023-05-14T16:51:41;11.30;99.90
25170;DHT22;13129;48.012;10.352;2023-05-14T16:54:08;11.10;99.90
25170;DHT22;13129;48.012;10.352;2023-05-14T16:56:34;11.00;99.90
25170;DHT22;13129;48.012;10.352;2023-05-14T16:59:00;10.80;99.90
25170;DHT22;13129;48.012;10.352;2023-05-14T17:01:26;10.90;99.90
25170;DHT22;13129;48.012;10.352;2023-05-14T17:03:52;10.90;99.90
25170;DHT22;13129;48.012;10.352;2023-05-14T17:06:18;10.90;99.90
25170;DHT22;13129;48.012;10.352;2023-05-14T17:08:43;11.00;99.90
25170;DHT22;13129;48.012;10.352;2023-05-14T17:11:09;11.10;99.90
25170;DHT22;13129;48.012;10.352;2023-05-14T17:13:35;11.20;99.90
25170;DHT22;13129;48.012;10.352;2023-05-14T17:16:00;11.30;99.90
25170;DHT22;13129;48.012;10.352;2023-05-14T17:18:26;11.30;99.90
25170;DHT22;13129;48.012;10.352;2023-05-14T17:20:52;11.40;99.90
25170;DHT22;13129;48.012;10.352;2023-05-14T17:23:18;11.50;99.90
25170;DHT22;13129;48.012;10.352;2023-05-14T17:25:44;11.60;99.90
25170;DHT22;13129;48.012;10.352;2023-05-14T17:28:10;11.70;99.90
25170;DHT22;13129;48.012;10.352;2023-05-14T17:30:36;11.70;99.90
25170;DHT22;13129;48.012;10.352;2023-05-14T17:33:01;11.70;99.90
25170;DHT22;13129;48.012;10.352;2023-05-14T17:35:27;11.60;99.90
25170;DHT22;13129;48.012;10.352;2023-05-14T17:37:53;11.60;99.90
25170;DHT22;13129;48.012;10.352;2023-05-14T17:40:18;11.60;99.90
25170;DHT22;13129;48.012;10.352;2023-05-14T17:42:44;11.60;99.90
25170;DHT22;13129;48.012;10.352;2023-05-14T17:45:10;11.60;99.90
25170;DHT22;13129;48.012;10.352;2023-05-14T17:47:37;11.60;99.90
25170;DHT22;13129;48.012;10.352;2023-05-14T17:50:03;11.50;99.90
25170;DHT22;13129;48.012;10.352;2023-05-14T17:52:29;11.50;99.90
25170;DHT22;13129;48.012;10.352;2023-05-14T17:54:55;11.50;99.90
25170;DHT22;13129;48.012;10.352;2023-05-14T17:57:20;11.40;99.90
25170;DHT22;13129;48.012;10.352;2023-05-14T17:59:47;11.30;99.90
25170;DHT22;13129;48.012;10.352;2023-05-14T18:02:12;11.30;99.90
25170;DHT22;13129;48.012;10.352;2023-05-14T18:04:38;11.20;99.90
25170;DHT22;13129;48.012;10.352;2023-05-14T18:07:04;11.10;99.90
25170;DHT22;13129;48.012;10.352;2023-05-14T18:09:29;11.10;99.90
25170;DHT22;13129;48.012;10.352;2023-05-14T18:11:55;11.10;99.90
25170;DHT22;13129;48.012;10.352;2023-05-14T18:14:21;11.00;99.90
25170;DHT22;13129;48.012;10.352;2023-05-14T18:16:46;10.90;99.90
25170;DHT22;13129;48.012;10.352;2023-05-14T18:19:12;10.90;99.90
25170;DHT22;13129;48.012;10.352;2023-05-14T18:21:38;10.90;99.90
25170;DHT22;13129;48.012;10.352;2023-05-14T18:24:04;10.90;99.90
25170;DHT22;13129;48.012;10.352;2023-05-14T18:26:30;10.90;99.90
25170;DHT22;13129;48.012;10.352;2023-05-14T18:28:56;10.90;99.90
25170;DHT22;13129;48.012;10.352;2023-05-14T18:31:22;10.90;99.90
25170;DHT22;13129;48.012;10.352;2023-05-14T18:33:48;10.90;99.90
25170;DHT22;13129;48.012;10.352;2023-05-14T18:36:14;10.90;99.90
25170;DHT22;13129;48.012;10.352;2023-05-14T18:38:39;10.80;99.90
25170;DHT22;13129;48.012;10.352;2023-05-14T18:41:06;10.80;99.90
25170;DHT22;13129;48.012;10.352;2023-05-14T18:43:31;10.80;99.90
25170;DHT22;13129;48.012;10.352;2023-05-14T18:45:58;10.70;99.90
25170;DHT22;13129;48.012;10.352;2023-05-14T18:48:24;10.70;99.90
25170;DHT22;13129;48.012;10.352;2023-05-14T18:50:51;10.70;99.90
25170;DHT22;13129;48.012;10.352;2023-05-14T18:53:17;10.60;99.90
25170;DHT22;13129;48.012;10.352;2023-05-14T18:55:43;10.60;99.90
25170;DHT22;13129;48.012;10.352;2023-05-14T18:58:08;10.60;99.90
25170;DHT22;13129;48.012;10.352;2023-05-14T19:00:34;10.60;99.90
25170;DHT22;13129;48.012;10.352;2023-05-14T19:03:00;10.50;99.90
25170;DHT22;13129;48.012;10.352;2023-05-14T19:05:26;10.50;99.90
25170;DHT22;13129;48.012;10.352;2023-05-14T19:07:52;10.50;99.90
25170;DHT22;13129;48.012;10.352;2023-05-14T19:10:18;10.40;99.90
25170;DHT22;13129;48.012;10.352;2023-05-14T19:12:45;10.40;99.90
25170;DHT22;13129;48.012;10.352;2023-05-14T19:15:11;10.40;99.90
25170;DHT22;13129;48.012;10.352;2023-05-14T19:17:37;10.40;99.90
25170;DHT22;13129;48.012;10.352;2023-05-14T19:20:04;10.30;99.90
25170;DHT22;13129;48.012;10.352;2023-05-14T19:22:31;10.30;99.90
25170;DHT22;13129;48.012;10.352;2023-05-14T19:24:56;10.30;99.90
25170;DHT22;13129;48.012;10.352;2023-05-14T19:27:22;10.30;99.90
25170;DHT22;13129;48.012;10.352;2023-05-14T19:29:48;10.30;99.90
25170;DHT22;13129;48.012;10.352;2023-05-14T19:32:14;10.30;99.90
25170;DHT22;13129;48.012;10.352;2023-05-14T19:34:40;10.30;99.90
25170;DHT22;13129;48.012;10.352;2023-05-14T19:37:06;10.30;99.90
25170;DHT22;13129;48.012;10.352;2023-05-14T19:39:32;10.20;99.90
25170;DHT22;13129;48.012;10.352;2023-05-14T19:41:58;10.20;99.90
25170;DHT22;13129;48.012;10.352;2023-05-14T19:44:24;10.10;99.90
25170;DHT22;13129;48.012;10.352;2023-05-14T19:46:50;10.10;99.90
25170;DHT22;13129;48.012;10.352;2023-05-14T19:49:16;10.00;99.90
25170;DHT22;13129;48.012;10.352;2023-05-14T19:51:41;10.00;99.90
25170;DHT22;13129;48.012;10.352;2023-05-14T19:54:07;9.90;99.90
25170;DHT22;13129;48.012;10.352;2023-05-14T19:56:34;9.90;99.90
25170;DHT22;13129;48.012;10.352;2023-05-14T19:59:00;9.90;99.90
25170;DHT22;13129;48.012;10.352;2023-05-14T20:01:26;9.90;99.90
25170;DHT22;13129;48.012;10.352;2023-05-14T20:03:52;9.90;99.90
25170;DHT22;13129;48.012;10.352;2023-05-14T20:06:17;9.90;99.90
25170;DHT22;13129;48.012;10.352;2023-05-14T20:08:43;10.00;99.90
25170;DHT22;13129;48.012;10.352;2023-05-14T20:11:12;10.00;99.90
25170;DHT22;13129;48.012;10.352;2023-05-14T20:13:39;10.00;99.90
25170;DHT22;13129;48.012;10.352;2023-05-14T20:16:05;10.10;99.90
25170;DHT22;13129;48.012;10.352;2023-05-14T20:18:31;10.10;99.90
25170;DHT22;13129;48.012;10.352;2023-05-14T20:20:57;10.00;99.90
25170;DHT22;13129;48.012;10.352;2023-05-14T20:23:22;10.10;99.90
25170;DHT22;13129;48.012;10.352;2023-05-14T20:25:48;10.00;99.90
25170;DHT22;13129;48.012;10.352;2023-05-14T20:28:14;10.00;99.90
25170;DHT22;13129;48.012;10.352;2023-05-14T20:30:39;10.00;99.90
25170;DHT22;13129;48.012;10.352;2023-05-14T20:33:05;10.00;99.90
25170;DHT22;13129;48.012;10.352;2023-05-14T20:35:31;10.00;99.90
25170;DHT22;13129;48.012;10.352;2023-05-14T20:37:57;10.00;99.90
25170;DHT22;13129;48.012;10.352;2023-05-14T20:40:23;9.90;99.90
25170;DHT22;13129;48.012;10.352;2023-05-14T20:42:49;9.90;99.90
25170;DHT22;13129;48.012;10.352;2023-05-14T20:45:17;9.80;99.90
25170;DHT22;13129;48.012;10.352;2023-05-14T20:47:43;9.80;99.90
25170;DHT22;13129;48.012;10.352;2023-05-14T20:50:09;9.80;99.90
25170;DHT22;13129;48.012;10.352;2023-05-14T20:52:35;9.70;99.90
25170;DHT22;13129;48.012;10.352;2023-05-14T20:55:00;9.70;99.90
25170;DHT22;13129;48.012;10.352;2023-05-14T20:57:26;9.70;99.90
25170;DHT22;13129;48.012;10.352;2023-05-14T20:59:52;9.70;99.90
25170;DHT22;13129;48.012;10.352;2023-05-14T21:02:18;9.60;99.90
25170;DHT22;13129;48.012;10.352;2023-05-14T21:04:44;9.60;99.90
25170;DHT22;13129;48.012;10.352;2023-05-14T21:07:10;9.70;99.90
25170;DHT22;13129;48.012;10.352;2023-05-14T21:09:36;9.70;99.90
25170;DHT22;13129;48.012;10.352;2023-05-14T21:12:01;9.60;99.90
25170;DHT22;13129;48.012;10.352;2023-05-14T21:14:27;9.60;99.90
25170;DHT22;13129;48.012;10.352;2023-05-14T21:16:53;9.60;99.90
25170;DHT22;13129;48.012;10.352;2023-05-14T21:19:18;9.60;99.90
25170;DHT22;13129;48.012;10.352;2023-05-14T21:21:44;9.60;99.90
25170;DHT22;13129;48.012;10.352;2023-05-14T21:24:10;9.50;99.90
25170;DHT22;13129;48.012;10.352;2023-05-14T21:26:36;9.50;99.90
25170;DHT22;13129;48.012;10.352;2023-05-14T21:29:02;9.50;99.90
25170;DHT22;13129;48.012;10.352;2023-05-14T21:31:28;9.50;99.90
25170;DHT22;13129;48.012;10.352;2023-05-14T21:33:54;9.60;99.90
25170;DHT22;13129;48.012;10.352;2023-05-14T21:36:19;9.60;99.90
25170;DHT22;13129;48.012;10.352;2023-05-14T21:38:46;9.50;99.90
25170;DHT22;13129;48.012;10.352;2023-05-14T21:41:11;9.50;99.90
25170;DHT22;13129;48.012;10.352;2023-05-14T21:43:37;9.50;99.90
25170;DHT22;13129;48.012;10.352;2023-05-14T21:46:08;9.50;99.90
25170;DHT22;13129;48.012;10.352;2023-05-14T21:48:33;9.50;99.90
25170;DHT22;13129;48.012;10.352;2023-05-14T21:50:59;9.50;99.90
25170;DHT22;13129;48.012;10.352;2023-05-14T21:53:25;9.50;99.90
25170;DHT22;13129;48.012;10.352;2023-05-14T21:55:50;9.50;99.90
25170;DHT22;13129;48.012;10.352;2023-05-14T21:58:16;9.50;99.90
25170;DHT22;13129;48.012;10.352;2023-05-14T22:00:42;9.50;99.90
25170;DHT22;13129;48.012;10.352;2023-05-14T22:03:07;9.40;99.90
25170;DHT22;13129;48.012;10.352;2023-05-14T22:05:33;9.50;99.90
25170;DHT22;13129;48.012;10.352;2023-05-14T22:07:59;9.40;99.90
25170;DHT22;13129;48.012;10.352;2023-05-14T22:10:24;9.40;99.90
25170;DHT22;13129;48.012;10.352;2023-05-14T22:12:50;9.40;99.90
25170;DHT22;13129;48.012;10.352;2023-05-14T22:15:15;9.40;99.90
25170;DHT22;13129;48.012;10.352;2023-05-14T22:17:41;9.40;99.90
25170;DHT22;13129;48.012;10.352;2023-05-14T22:20:07;9.40;99.90
25170;DHT22;13129;48.012;10.352;2023-05-14T22:22:36;9.40;99.90
25170;DHT22;13129;48.012;10.352;2023-05-14T22:25:02;9.50;99.90
25170;DHT22;13129;48.012;10.352;2023-05-14T22:27:29;9.50;99.90
25170;DHT22;13129;48.012;10.352;2023-05-14T22:29:54;9.50;99.90